»·PEaware :: CAP428 KCVO-KPDX

CAP428 :: KCVO-KPDX

FLIGHT INFORMATION

Flight Status: Arrived
Operator: Unknown
More flights by this operator :: More flights under this callsign
Pilot: Armando C. (16967)
Aircraft: CESSNA 182 SKYLANE
(C182)
More flights by this aircraft type
Origin: KCVO Corvallis Mun
United States
Destination: KPDX Portland Intl
United States
More flights between these airports :: More routes between these airports
Route: +MYCRO
File this flight plan on PilotEdge
Remarks:
Altitude:
(Current/Filed)
7,000ft
Speed:
(Current/Filed)
135kts
Departed: 23-Dec-17 11:28 AM
Arrived: 23-Dec-17 12:13 PM
Distance/Time
Traveled:
71nm/0:45
Distance/Time
To Go:
Arrived

Flight Plot

Page will automatically refresh every two minutes.

Flight plan parsing failed; only flown route is shown


Map Options




Map Legend


Flown Route
Filed Route
Departure Airport
Arrival Airport
Navaid (VOR, NDB)
Fix

Horizontal Profiles

Position Reports

Time Latitude Longitude Heading Altitude Ground
Speed
23-Dec-17 11:18 44.502451 -123.283030 149 249ft 0kts
23-Dec-17 11:19 44.502450 -123.283029 150 249ft 0kts
23-Dec-17 11:20 44.502449 -123.283029 150 249ft 0kts
23-Dec-17 11:21 44.500647 -123.284062 198 249ft 19kts
23-Dec-17 11:22 44.497708 -123.290086 219 249ft 14kts
23-Dec-17 11:23 44.492857 -123.291167 187 249ft 23kts
23-Dec-17 11:24 44.487562 -123.292341 268 249ft 0kts
23-Dec-17 11:25 44.487562 -123.292343 268 249ft 0kts
23-Dec-17 11:26 44.487562 -123.292344 268 249ft 0kts
23-Dec-17 11:27 44.487562 -123.292346 268 249ft 0kts
23-Dec-17 11:28 44.487562 -123.292348 269 249ft 0kts
23-Dec-17 11:29 44.487562 -123.292349 269 249ft 0kts
23-Dec-17 11:30 44.487562 -123.292351 269 249ft 0kts
23-Dec-17 11:31 44.487562 -123.292352 269 249ft 0kts
23-Dec-17 11:32 44.487562 -123.292354 269 249ft 0kts
23-Dec-17 11:33 44.487563 -123.292808 276 249ft 0kts
23-Dec-17 11:34 44.496759 -123.292304 8 518ft 80kts
23-Dec-17 11:35 44.501648 -123.272311 162 1769ft 97kts
23-Dec-17 11:36 44.473414 -123.267534 223 2832ft 116kts
23-Dec-17 11:37 44.489117 -123.291173 350 3885ft 103kts
23-Dec-17 11:38 44.512859 -123.283831 65 4974ft 110kts
23-Dec-17 11:39 44.528003 -123.247591 43 5949ft 108kts
23-Dec-17 11:40 44.547813 -123.216159 46 6890ft 103kts
23-Dec-17 11:41 44.569759 -123.180770 46 7005ft 133kts
23-Dec-17 11:42 44.594639 -123.140588 45 7004ft 138kts
23-Dec-17 11:43 44.619933 -123.099649 46 7006ft 138kts
23-Dec-17 11:44 44.644822 -123.059322 46 7006ft 134kts
23-Dec-17 11:45 44.669244 -123.019711 46 7011ft 134kts
23-Dec-17 11:46 44.702918 -123.001229 14 7012ft 132kts
23-Dec-17 11:47 44.738370 -122.987623 14 7013ft 132kts
23-Dec-17 11:48 44.773807 -122.973980 14 7013ft 132kts
23-Dec-17 11:49 44.809229 -122.960321 14 7013ft 132kts
23-Dec-17 11:50 44.846571 -122.945863 10 7023ft 148kts
23-Dec-17 11:51 44.885589 -122.930802 11 7014ft 140kts
23-Dec-17 11:52 44.922235 -122.916606 11 7014ft 135kts
23-Dec-17 11:53 44.959155 -122.902313 9 7014ft 143kts
23-Dec-17 11:54 44.998687 -122.886955 10 7018ft 143kts
23-Dec-17 11:55 45.036108 -122.872388 9 7034ft 140kts
23-Dec-17 11:56 45.075729 -122.857025 11 6969ft 151kts
23-Dec-17 11:57 45.117169 -122.842078 1 6974ft 153kts
23-Dec-17 11:58 45.160032 -122.838536 0 6969ft 155kts
23-Dec-17 11:59 45.203213 -122.833935 0 6970ft 155kts
23-Dec-17 12:00 45.246265 -122.829125 0 6971ft 155kts
23-Dec-17 12:01 45.289345 -122.824292 0 6970ft 155kts
23-Dec-17 12:02 45.333173 -122.819384 1 6574ft 158kts
23-Dec-17 12:03 45.376916 -122.814444 3 6075ft 157kts
23-Dec-17 12:04 45.420380 -122.809543 3 5572ft 155kts
23-Dec-17 12:05 45.463422 -122.804667 4 5076ft 154kts
23-Dec-17 12:06 45.504087 -122.800055 4 4986ft 140kts
23-Dec-17 12:07 45.540948 -122.802264 336 5016ft 125kts
23-Dec-17 12:08 45.573311 -122.820610 338 4345ft 125kts
23-Dec-17 12:09 45.605900 -122.835240 359 3617ft 113kts
23-Dec-17 12:10 45.632328 -122.822389 44 2820ft 90kts
23-Dec-17 12:11 45.644979 -122.797080 73 2437ft 77kts
23-Dec-17 12:12 45.647409 -122.768095 100 2123ft 71kts
23-Dec-17 12:13 45.641400 -122.741161 115 1984ft 66kts
23-Dec-17 12:14 45.632930 -122.717713 117 1821ft 75kts
23-Dec-17 12:15 45.621266 -122.689083 116 1116ft 86kts
23-Dec-17 12:16 45.611924 -122.664776 116 740ft 65kts
23-Dec-17 12:17 45.602816 -122.641264 116 393ft 68kts
23-Dec-17 12:18 45.593737 -122.617867 116 34ft 54kts
23-Dec-17 12:19 45.588630 -122.605530 261 33ft 10kts
23-Dec-17 12:20 45.586744 -122.608675 224 33ft 29kts
23-Dec-17 12:21 45.582277 -122.613272 138 33ft 14kts
23-Dec-17 12:22 45.581037 -122.609643 14 33ft 10kts
23-Dec-17 12:23 45.581297 -122.609766 313 33ft 0kts
23-Dec-17 12:24 45.581297 -122.609766 313 33ft 0kts

Navigation Log

Ident Type
Flight plan parsing failed, navigation log unavailable